createdAt,value
2017-11-13T00:01:16.060Z,78.30
2017-11-13T00:03:43.959Z,78.10
2017-11-13T00:06:11.424Z,78.10
2017-11-13T00:08:38.860Z,78.50
2017-11-13T00:11:08.039Z,78.40
2017-11-13T00:13:35.860Z,78.00
2017-11-13T00:16:03.286Z,78.00
2017-11-13T00:18:31.920Z,78.00
2017-11-13T00:20:59.484Z,78.00
2017-11-13T00:23:26.932Z,78.10
2017-11-13T00:25:54.389Z,78.20
2017-11-13T00:28:21.857Z,78.10
2017-11-13T00:30:49.456Z,78.10
2017-11-13T00:33:16.976Z,78.20
2017-11-13T00:35:44.437Z,78.00
2017-11-13T00:38:11.855Z,78.20
2017-11-13T00:40:39.474Z,78.10
2017-11-13T00:43:06.935Z,77.90
2017-11-13T00:45:34.403Z,77.80
2017-11-13T00:48:01.888Z,77.90
2017-11-13T00:50:29.353Z,78.00
2017-11-13T00:52:56.846Z,78.00
2017-11-13T00:55:24.721Z,77.80
2017-11-13T00:57:52.612Z,77.90
2017-11-13T01:00:20.079Z,77.90
2017-11-13T01:02:47.539Z,77.90
2017-11-13T01:05:15.034Z,77.90
2017-11-13T01:07:43.198Z,78.00
2017-11-13T01:10:10.666Z,78.00
2017-11-13T01:12:38.172Z,78.00
2017-11-13T01:15:06.037Z,77.70
2017-11-13T01:17:33.539Z,77.70
2017-11-13T01:20:00.986Z,77.70
2017-11-13T01:22:28.974Z,77.80
2017-11-13T01:24:56.496Z,77.80
2017-11-13T01:27:24.001Z,78.10
2017-11-13T01:29:51.501Z,77.60
2017-11-13T01:32:19.826Z,77.70
2017-11-13T01:34:47.694Z,77.50
2017-11-13T01:37:15.179Z,77.50
2017-11-13T01:39:42.674Z,77.30
2017-11-13T01:42:10.380Z,76.80
2017-11-13T01:44:38.230Z,77.10
2017-11-13T01:47:05.684Z,77.10
2017-11-13T01:49:33.169Z,77.10
2017-11-13T01:52:01.051Z,76.90
2017-11-13T01:54:28.897Z,77.00
2017-11-13T01:56:56.763Z,76.90
2017-11-13T01:59:24.310Z,76.90
2017-11-13T02:01:52.598Z,76.90
2017-11-13T02:04:20.045Z,77.10
2017-11-13T02:06:48.090Z,77.10
2017-11-13T02:09:15.542Z,77.00
2017-11-13T02:11:42.988Z,77.10
2017-11-13T02:14:10.841Z,77.40
2017-11-13T02:16:38.300Z,77.40
2017-11-13T02:19:05.747Z,77.50
2017-11-13T02:21:34.403Z,76.30
2017-11-13T02:24:01.878Z,76.60
2017-11-13T02:26:29.365Z,76.70
2017-11-13T02:28:56.801Z,75.90
2017-11-13T02:31:24.220Z,75.50
2017-11-13T02:33:52.227Z,76.10
2017-11-13T02:36:19.679Z,76.10
2017-11-13T02:38:47.207Z,76.60
2017-11-13T02:41:14.755Z,76.00
2017-11-13T02:43:42.215Z,75.50
2017-11-13T02:46:10.990Z,75.90
2017-11-13T02:48:38.452Z,75.60
2017-11-13T02:51:05.904Z,75.70
2017-11-13T02:53:33.342Z,75.20
2017-11-13T02:56:00.804Z,74.50
2017-11-13T02:58:28.263Z,74.50
2017-11-13T03:00:55.834Z,74.80
2017-11-13T03:03:23.336Z,75.10
2017-11-13T03:05:50.891Z,74.50
2017-11-13T03:08:18.581Z,74.70
2017-11-13T03:10:46.136Z,74.40
2017-11-13T03:13:13.584Z,74.40
2017-11-13T03:15:41.050Z,74.90
2017-11-13T03:18:08.517Z,74.50
2017-11-13T03:20:35.972Z,74.90
2017-11-13T03:23:03.429Z,74.80
2017-11-13T03:25:30.896Z,75.20
2017-11-13T03:27:58.306Z,75.70
2017-11-13T03:30:25.785Z,76.30
2017-11-13T03:32:53.283Z,74.90
2017-11-13T03:35:20.735Z,74.80
2017-11-13T03:37:48.301Z,74.70
2017-11-13T03:40:16.249Z,74.10
2017-11-13T03:42:43.673Z,73.60
2017-11-13T03:45:11.624Z,74.30
2017-11-13T03:47:39.086Z,74.30
2017-11-13T03:50:06.510Z,75.20
2017-11-13T03:52:33.988Z,75.50
2017-11-13T03:55:01.428Z,74.80
2017-11-13T03:57:29.024Z,73.70
2017-11-13T03:59:56.523Z,74.10
2017-11-13T04:02:24.389Z,74.70
2017-11-13T04:04:51.847Z,74.70
2017-11-13T04:07:19.345Z,74.80
2017-11-13T04:09:46.812Z,74.00
2017-11-13T04:12:14.313Z,73.90
2017-11-13T04:14:43.781Z,74.10
2017-11-13T04:17:11.287Z,73.90
2017-11-13T04:19:39.214Z,74.10
2017-11-13T04:22:07.914Z,74.10
2017-11-13T04:24:35.487Z,74.10
2017-11-13T04:27:02.941Z,74.20
2017-11-13T04:29:30.371Z,74.00
2017-11-13T04:31:58.257Z,73.40
2017-11-13T04:34:25.739Z,73.40
2017-11-13T04:36:53.184Z,73.40
2017-11-13T04:39:20.642Z,73.10
2017-11-13T04:41:48.104Z,73.60
2017-11-13T04:44:15.543Z,74.00
2017-11-13T04:46:45.221Z,73.40
2017-11-13T04:49:13.653Z,73.40
2017-11-13T04:51:41.150Z,73.10
2017-11-13T04:54:08.902Z,73.50
2017-11-13T04:56:36.346Z,74.00
2017-11-13T04:59:03.845Z,73.70
2017-11-13T05:01:31.437Z,73.70
2017-11-13T05:03:58.877Z,73.80
2017-11-13T05:06:26.319Z,74.00
2017-11-13T05:08:53.840Z,73.90
2017-11-13T05:11:21.337Z,74.40
2017-11-13T05:13:48.810Z,73.90
2017-11-13T05:16:16.397Z,73.90
2017-11-13T05:18:43.875Z,74.10
2017-11-13T05:21:11.929Z,74.60
2017-11-13T05:23:39.385Z,74.80
2017-11-13T05:26:06.834Z,75.10
2017-11-13T05:28:34.282Z,74.80
2017-11-13T05:31:01.776Z,75.00
2017-11-13T05:33:29.239Z,75.10
2017-11-13T05:35:56.676Z,75.00
2017-11-13T05:38:24.126Z,74.50
2017-11-13T05:40:51.620Z,74.70
2017-11-13T05:43:19.068Z,74.80
2017-11-13T05:45:46.589Z,74.40
2017-11-13T05:48:14.451Z,74.60
2017-11-13T05:50:41.992Z,74.60
2017-11-13T05:53:09.443Z,75.00
2017-11-13T05:55:36.904Z,75.30
2017-11-13T05:58:04.368Z,75.60
2017-11-13T06:00:31.840Z,75.70
2017-11-13T06:02:59.815Z,75.50
2017-11-13T06:05:27.290Z,75.40
2017-11-13T06:07:54.760Z,75.30
2017-11-13T06:10:22.228Z,75.70
2017-11-13T06:12:50.082Z,75.50
2017-11-13T06:15:17.572Z,75.50
2017-11-13T06:17:45.501Z,74.40
2017-11-13T06:20:12.949Z,74.40
2017-11-13T06:22:40.434Z,74.10
2017-11-13T06:25:07.986Z,74.00
2017-11-13T06:27:35.443Z,74.10
2017-11-13T06:30:03.389Z,74.30
2017-11-13T06:32:30.849Z,74.20
2017-11-13T06:34:58.308Z,74.50
2017-11-13T06:37:25.784Z,74.60
2017-11-13T06:39:53.207Z,74.20
2017-11-13T06:42:21.044Z,74.50
2017-11-13T06:44:48.525Z,74.50
2017-11-13T06:47:15.961Z,74.50
2017-11-13T06:49:43.418Z,74.60
2017-11-13T06:52:11.001Z,74.20
2017-11-13T06:54:38.459Z,74.20
2017-11-13T06:57:06.021Z,73.90
2017-11-13T06:59:34.358Z,73.90
2017-11-13T07:02:01.858Z,74.20
2017-11-13T07:04:29.327Z,73.90
2017-11-13T07:06:56.781Z,73.90
2017-11-13T07:09:24.219Z,73.70
2017-11-13T07:11:51.742Z,73.70
2017-11-13T07:14:19.196Z,73.40
2017-11-13T07:16:46.710Z,73.30
2017-11-13T07:19:15.191Z,73.60
2017-11-13T07:21:42.699Z,73.40
2017-11-13T07:24:10.131Z,73.40
2017-11-13T07:26:37.574Z,73.60
2017-11-13T07:29:06.448Z,73.30
2017-11-13T07:31:34.297Z,73.30
2017-11-13T07:34:01.852Z,73.30
2017-11-13T07:36:29.413Z,73.40
2017-11-13T07:38:56.909Z,73.60
2017-11-13T07:41:24.802Z,73.60
2017-11-13T07:43:52.228Z,73.60
2017-11-13T07:46:20.135Z,74.30
2017-11-13T07:48:47.721Z,74.30
2017-11-13T07:51:15.180Z,73.80
2017-11-13T07:53:42.647Z,74.00
2017-11-13T07:56:10.121Z,73.10
2017-11-13T07:58:37.565Z,73.30
2017-11-13T08:01:05.021Z,72.80
2017-11-13T08:03:32.501Z,72.80
2017-11-13T08:05:59.966Z,72.70
2017-11-13T08:08:27.464Z,72.70
2017-11-13T08:10:55.347Z,72.90
2017-11-13T08:13:22.853Z,72.90
2017-11-13T08:15:50.427Z,72.70
2017-11-13T08:18:17.960Z,72.80
2017-11-13T08:20:45.434Z,72.70
2017-11-13T08:23:12.890Z,72.50
2017-11-13T08:25:40.414Z,72.80
2017-11-13T08:28:08.262Z,72.80
2017-11-13T08:30:35.706Z,72.80
2017-11-13T08:33:03.919Z,72.70
2017-11-13T08:35:31.752Z,72.20
2017-11-13T08:37:59.203Z,72.20
2017-11-13T08:40:26.895Z,73.00
2017-11-13T08:42:54.438Z,73.00
2017-11-13T08:45:21.904Z,72.40
2017-11-13T08:47:49.456Z,72.90
2017-11-13T08:50:16.930Z,73.40
2017-11-13T08:52:44.413Z,73.00
2017-11-13T08:55:11.993Z,72.70
2017-11-13T08:57:39.874Z,72.10
2017-11-13T09:00:07.726Z,72.10
2017-11-13T09:02:35.649Z,72.20
2017-11-13T09:05:03.157Z,72.20
2017-11-13T09:07:30.712Z,72.70
2017-11-13T09:09:58.202Z,72.90
2017-11-13T09:12:26.152Z,71.90
2017-11-13T09:14:54.380Z,71.90
2017-11-13T09:17:21.841Z,71.50
2017-11-13T09:19:49.360Z,71.40
2017-11-13T09:22:18.028Z,71.40
2017-11-13T09:24:45.584Z,71.40
2017-11-13T09:27:13.043Z,71.10
2017-11-13T09:29:40.551Z,71.00
2017-11-13T09:32:08.612Z,70.80
2017-11-13T09:34:36.146Z,70.80
2017-11-13T09:37:03.612Z,70.70
2017-11-13T09:39:31.121Z,70.90
2017-11-13T09:41:58.988Z,71.10
2017-11-13T09:44:26.842Z,70.40
2017-11-13T09:46:55.707Z,70.40
2017-11-13T09:49:23.178Z,70.60
2017-11-13T09:51:50.671Z,69.80
2017-11-13T09:54:18.539Z,69.70
2017-11-13T09:56:46.396Z,70.10
2017-11-13T09:59:13.949Z,70.10
2017-11-13T10:01:41.504Z,69.80
2017-11-13T10:04:09.121Z,69.90
2017-11-13T10:06:36.716Z,70.20
2017-11-13T10:09:04.205Z,69.50
2017-11-13T10:11:31.671Z,68.30
2017-11-13T10:13:59.708Z,69.20
2017-11-13T10:16:27.316Z,68.90
2017-11-13T10:18:54.735Z,69.20
2017-11-13T10:21:22.161Z,69.40
2017-11-13T10:23:50.063Z,69.70
2017-11-13T10:26:17.514Z,69.70
2017-11-13T10:28:44.986Z,69.60
2017-11-13T10:31:12.437Z,68.70
2017-11-13T10:33:39.875Z,69.20
2017-11-13T10:36:07.744Z,70.30
2017-11-13T10:38:35.205Z,70.30
2017-11-13T10:41:02.689Z,69.40
2017-11-13T10:43:30.683Z,69.20
2017-11-13T10:45:58.163Z,69.20
2017-11-13T10:48:25.621Z,69.30
2017-11-13T10:50:53.224Z,69.30
2017-11-13T10:53:20.659Z,69.50
2017-11-13T10:55:48.130Z,68.90
2017-11-13T10:58:15.605Z,69.00
2017-11-13T11:00:43.088Z,69.30
2017-11-13T11:03:10.968Z,69.00
2017-11-13T11:05:39.383Z,69.00
2017-11-13T11:08:06.945Z,69.10
2017-11-13T11:10:34.393Z,69.00
2017-11-13T11:13:02.723Z,69.20
2017-11-13T11:15:33.049Z,69.20
2017-11-13T11:18:13.854Z,69.60
2017-11-13T11:20:47.140Z,69.00
2017-11-13T11:23:17.460Z,68.90
2017-11-13T11:25:45.977Z,68.50
2017-11-13T11:28:29.227Z,68.50
2017-11-13T11:30:58.388Z,68.60
2017-11-13T11:33:37.840Z,67.90
2017-11-13T11:36:10.070Z,68.30
2017-11-13T11:38:38.533Z,68.30
2017-11-13T11:41:20.922Z,68.00
2017-11-13T11:43:49.341Z,68.30
2017-11-13T11:46:17.657Z,68.60
2017-11-13T11:48:45.869Z,67.90
2017-11-13T11:51:14.240Z,68.20
2017-11-13T11:53:45.299Z,68.00
2017-11-13T11:56:12.922Z,67.60
2017-11-13T11:58:40.361Z,67.70
2017-11-13T12:01:08.241Z,67.10
2017-11-13T12:03:36.076Z,67.40
2017-11-13T12:06:03.524Z,67.40
2017-11-13T12:08:31.009Z,67.30
2017-11-13T12:10:58.477Z,67.60
2017-11-13T12:13:26.619Z,67.50
2017-11-13T12:15:54.062Z,67.90
2017-11-13T12:18:21.599Z,68.00
2017-11-13T12:20:49.451Z,67.20
2017-11-13T12:23:16.909Z,67.20
2017-11-13T12:25:44.681Z,67.50
2017-11-13T12:28:12.562Z,67.70
2017-11-13T12:30:40.387Z,67.00
2017-11-13T12:33:07.860Z,67.00
2017-11-13T12:35:35.332Z,66.40
2017-11-13T12:38:02.770Z,66.90
2017-11-13T12:40:30.268Z,66.40
2017-11-13T12:42:58.566Z,66.00
2017-11-13T12:45:26.413Z,66.20
2017-11-13T12:47:53.853Z,66.20
2017-11-13T12:50:21.338Z,66.00
2017-11-13T12:52:48.876Z,66.00
2017-11-13T12:55:16.351Z,66.40
2017-11-13T12:57:45.321Z,66.20
2017-11-13T13:00:12.840Z,65.70
2017-11-13T13:02:41.341Z,65.40
2017-11-13T13:05:09.236Z,65.60
2017-11-13T13:07:36.663Z,65.60
2017-11-13T13:10:05.074Z,65.50
2017-11-13T13:12:32.538Z,65.50
2017-11-13T13:14:59.979Z,65.60
2017-11-13T13:17:28.827Z,65.00
2017-11-13T13:19:56.282Z,65.00
2017-11-13T13:22:23.822Z,65.60
2017-11-13T13:24:51.315Z,65.70
2017-11-13T13:27:18.762Z,65.60
2017-11-13T13:29:46.343Z,65.30
2017-11-13T13:32:13.813Z,65.80
2017-11-13T13:34:41.337Z,65.80
2017-11-13T13:37:08.774Z,66.10
2017-11-13T13:39:37.674Z,65.60
2017-11-13T13:42:17.354Z,65.80
2017-11-13T13:44:44.812Z,65.80
2017-11-13T13:47:12.291Z,65.10
2017-11-13T13:49:39.744Z,65.80
2017-11-13T13:52:07.245Z,65.60
2017-11-13T13:54:34.690Z,65.60
2017-11-13T13:57:02.153Z,66.20
2017-11-13T13:59:29.683Z,65.60
2017-11-13T14:01:57.198Z,66.30
2017-11-13T14:04:25.508Z,66.40
2017-11-13T14:06:53.009Z,66.40
2017-11-13T14:09:20.455Z,66.70
2017-11-13T14:11:47.935Z,66.90
2017-11-13T14:14:15.417Z,67.50
2017-11-13T14:16:42.946Z,67.70
2017-11-13T14:19:10.369Z,67.90
2017-11-13T14:21:38.317Z,67.40
2017-11-13T14:24:06.262Z,67.00
2017-11-13T14:26:33.823Z,67.00
2017-11-13T14:29:01.352Z,67.70
2017-11-13T14:31:28.782Z,67.90
2017-11-13T14:33:56.789Z,68.60
2017-11-13T14:36:24.318Z,68.60
2017-11-13T14:38:51.745Z,68.80
2017-11-13T14:41:19.533Z,69.20
2017-11-13T14:43:46.940Z,69.30
2017-11-13T14:46:14.418Z,69.10
2017-11-13T14:48:42.787Z,68.90
2017-11-13T14:51:10.227Z,68.80
2017-11-13T14:53:38.102Z,69.30
2017-11-13T14:56:05.559Z,69.30
2017-11-13T14:58:33.656Z,70.30
2017-11-13T15:01:01.164Z,70.30
2017-11-13T15:03:28.639Z,70.30
2017-11-13T15:05:56.120Z,70.00
2017-11-13T15:08:24.044Z,70.50
2017-11-13T15:10:52.547Z,70.50
2017-11-13T15:13:20.095Z,71.10
2017-11-13T15:15:47.492Z,71.30
2017-11-13T15:18:15.378Z,72.20
2017-11-13T15:20:43.908Z,72.20
2017-11-13T15:23:11.428Z,72.20
2017-11-13T15:25:39.367Z,72.10
2017-11-13T15:28:06.866Z,72.20
2017-11-13T15:30:34.367Z,72.40
2017-11-13T15:33:01.870Z,72.60
2017-11-13T15:35:29.717Z,72.60
2017-11-13T15:37:57.301Z,72.60
2017-11-13T15:40:24.833Z,72.80
2017-11-13T15:42:52.317Z,72.80
2017-11-13T15:45:19.741Z,73.00
2017-11-13T15:47:47.837Z,73.30
2017-11-13T15:50:16.549Z,73.30
2017-11-13T15:52:44.025Z,73.40
2017-11-13T15:55:11.462Z,73.60
2017-11-13T15:57:38.918Z,73.50
2017-11-13T16:00:06.491Z,73.50
2017-11-13T16:02:33.939Z,73.80
2017-11-13T16:05:01.424Z,73.90
2017-11-13T16:07:29.787Z,73.80
2017-11-13T16:09:57.299Z,73.90
2017-11-13T16:12:24.754Z,73.70
2017-11-13T16:14:52.761Z,73.70
2017-11-13T16:17:20.218Z,73.70
2017-11-13T16:19:47.757Z,73.70
2017-11-13T16:22:15.696Z,73.70
2017-11-13T16:24:43.172Z,73.70
2017-11-13T16:27:11.119Z,74.10
2017-11-13T16:29:38.669Z,74.10
2017-11-13T16:32:06.110Z,74.20
2017-11-13T16:34:33.736Z,74.20
2017-11-13T16:37:01.487Z,74.10
2017-11-13T16:39:29.005Z,74.10
2017-11-13T16:41:56.485Z,74.00
2017-11-13T16:44:23.956Z,73.90
2017-11-13T16:46:51.714Z,74.20
2017-11-13T16:49:19.270Z,74.30
2017-11-13T16:51:46.841Z,74.40
2017-11-13T16:54:14.357Z,74.50
2017-11-13T16:56:42.186Z,74.80
2017-11-13T16:59:09.630Z,74.80
2017-11-13T17:01:37.098Z,74.90
2017-11-13T17:04:04.550Z,75.00
2017-11-13T17:06:32.014Z,74.90
2017-11-13T17:08:59.434Z,75.00
2017-11-13T17:11:27.418Z,75.30
2017-11-13T17:13:55.414Z,75.40
2017-11-13T17:16:23.126Z,75.40
2017-11-13T17:18:50.575Z,75.40
2017-11-13T17:21:18.108Z,75.30
2017-11-13T17:23:45.685Z,75.30
2017-11-13T17:26:13.117Z,75.00
2017-11-13T17:28:41.431Z,75.00
2017-11-13T17:31:08.852Z,74.90
2017-11-13T17:33:36.664Z,74.50
2017-11-13T17:36:04.119Z,74.60
2017-11-13T17:38:31.561Z,74.70
2017-11-13T17:40:58.996Z,74.80
2017-11-13T17:43:26.840Z,74.70
2017-11-13T17:45:54.366Z,74.70
2017-11-13T17:48:23.260Z,74.50
2017-11-13T17:50:50.744Z,74.50
2017-11-13T17:53:18.145Z,74.50
2017-11-13T17:55:46.763Z,74.60
2017-11-13T17:58:14.234Z,74.60
2017-11-13T18:00:41.696Z,74.70
2017-11-13T18:03:09.121Z,74.50
2017-11-13T18:05:37.032Z,74.20
2017-11-13T18:08:04.452Z,74.20
2017-11-13T18:10:31.962Z,74.20
2017-11-13T18:12:59.381Z,74.10
2017-11-13T18:15:27.219Z,74.30
2017-11-13T18:17:54.645Z,74.30
2017-11-13T18:20:22.113Z,74.30
2017-11-13T18:22:49.608Z,74.50
2017-11-13T18:25:17.043Z,74.40
2017-11-13T18:27:44.482Z,74.20
2017-11-13T18:30:11.982Z,74.30
2017-11-13T18:32:39.532Z,74.30
2017-11-13T18:35:06.996Z,74.30
2017-11-13T18:37:34.440Z,74.40
2017-11-13T18:40:01.914Z,74.40
2017-11-13T18:42:29.337Z,74.40
2017-11-13T18:44:57.235Z,74.80
2017-11-13T18:47:24.710Z,74.80
2017-11-13T18:49:52.401Z,74.90
2017-11-13T18:52:19.920Z,75.00
2017-11-13T18:54:47.353Z,75.20
2017-11-13T18:57:15.167Z,75.60
2017-11-13T18:59:42.610Z,75.60
2017-11-13T19:02:10.072Z,75.70
2017-11-13T19:04:37.497Z,75.80
2017-11-13T19:07:05.417Z,75.90
2017-11-13T19:09:32.864Z,75.90
2017-11-13T19:12:00.293Z,75.90
2017-11-13T19:14:28.212Z,75.80
2017-11-13T19:16:56.459Z,75.80
2017-11-13T19:19:24.270Z,76.00
2017-11-13T19:21:51.703Z,76.00
2017-11-13T19:24:19.135Z,75.90
2017-11-13T19:26:46.958Z,75.90
2017-11-13T19:29:14.380Z,75.90
2017-11-13T19:31:42.204Z,76.30
2017-11-13T19:34:09.667Z,76.30
2017-11-13T19:36:37.092Z,76.40
2017-11-13T19:39:04.516Z,76.40
2017-11-13T19:41:31.966Z,76.40
2017-11-13T19:43:59.459Z,76.30
2017-11-13T19:46:27.387Z,76.20
2017-11-13T19:48:54.983Z,76.20
2017-11-13T19:51:22.950Z,76.10
2017-11-13T19:53:51.714Z,76.20
2017-11-13T19:56:19.334Z,76.10
2017-11-13T19:58:47.123Z,76.30
2017-11-13T20:01:14.890Z,76.30
2017-11-13T20:03:42.806Z,76.40
2017-11-13T20:06:10.940Z,76.60
2017-11-13T20:08:40.444Z,76.60
2017-11-13T20:11:08.083Z,76.70
2017-11-13T20:13:35.727Z,76.70
2017-11-13T20:16:03.679Z,77.00
2017-11-13T20:18:31.321Z,77.00
2017-11-13T20:20:58.851Z,77.10
2017-11-13T20:23:26.821Z,77.30
2017-11-13T20:25:54.797Z,77.20
2017-11-13T20:28:22.649Z,77.00
2017-11-13T20:30:50.156Z,77.00
2017-11-13T20:33:18.448Z,76.80
2017-11-13T20:35:45.886Z,76.60
2017-11-13T20:38:13.310Z,76.50
2017-11-13T20:40:40.737Z,76.40
2017-11-13T20:43:08.206Z,76.50
2017-11-13T20:45:35.651Z,76.50
2017-11-13T20:48:03.112Z,76.40
2017-11-13T20:50:30.513Z,76.30
2017-11-13T20:52:58.174Z,76.40
2017-11-13T20:55:26.625Z,76.40
2017-11-13T20:57:54.060Z,76.50
2017-11-13T21:00:21.493Z,76.50
2017-11-13T21:02:49.445Z,76.50
2017-11-13T21:05:16.892Z,76.50
2017-11-13T21:07:44.341Z,76.50
2017-11-13T21:10:11.761Z,76.50
2017-11-13T21:12:39.607Z,76.80
2017-11-13T21:15:07.026Z,76.80
2017-11-13T21:17:34.503Z,76.90
2017-11-13T21:20:01.967Z,77.00
2017-11-13T21:22:29.413Z,77.30
2017-11-13T21:24:56.841Z,77.20
2017-11-13T21:27:24.661Z,77.00
2017-11-13T21:29:52.125Z,77.00
2017-11-13T21:32:19.580Z,76.90
2017-11-13T21:34:47.062Z,76.80
2017-11-13T21:37:14.491Z,76.90
2017-11-13T21:39:41.956Z,76.70
2017-11-13T21:42:10.545Z,76.80
2017-11-13T21:44:38.019Z,77.00
2017-11-13T21:47:05.466Z,76.90
2017-11-13T21:49:32.915Z,76.80
2017-11-13T21:52:00.354Z,76.70
2017-11-13T21:54:28.254Z,76.30
2017-11-13T21:56:57.290Z,76.30
2017-11-13T21:59:25.023Z,76.20
2017-11-13T22:01:52.686Z,76.20
2017-11-13T22:04:20.158Z,76.10
2017-11-13T22:06:47.717Z,76.10
2017-11-13T22:09:15.136Z,76.00
2017-11-13T22:11:43.165Z,76.30
2017-11-13T22:14:10.631Z,76.30
2017-11-13T22:16:38.077Z,76.50
2017-11-13T22:19:05.545Z,76.50
2017-11-13T22:21:32.977Z,76.30
2017-11-13T22:24:00.797Z,76.30
2017-11-13T22:26:28.334Z,76.30
2017-11-13T22:28:55.769Z,76.10
2017-11-13T22:31:23.677Z,76.00
2017-11-13T22:33:51.505Z,76.00
2017-11-13T22:36:19.340Z,75.80
2017-11-13T22:38:46.792Z,75.80
2017-11-13T22:41:14.225Z,75.80
2017-11-13T22:43:41.650Z,76.00
2017-11-13T22:46:09.204Z,75.80
2017-11-13T22:48:36.737Z,75.90
2017-11-13T22:51:04.153Z,76.00
2017-11-13T22:53:31.595Z,76.10
2017-11-13T22:55:59.024Z,76.20
2017-11-13T22:58:26.577Z,76.40
2017-11-13T23:00:54.000Z,76.50
2017-11-13T23:03:21.921Z,76.30
2017-11-13T23:05:49.359Z,76.30
2017-11-13T23:08:16.791Z,76.10
2017-11-13T23:10:45.112Z,76.10
2017-11-13T23:13:12.576Z,76.10
2017-11-13T23:15:40.169Z,76.30
2017-11-13T23:18:07.647Z,76.40
2017-11-13T23:20:35.098Z,76.50
2017-11-13T23:23:02.544Z,76.20
2017-11-13T23:25:29.997Z,76.10
2017-11-13T23:27:57.469Z,76.30
2017-11-13T23:30:24.910Z,76.30
2017-11-13T23:32:52.381Z,76.60
2017-11-13T23:35:19.841Z,76.60
2017-11-13T23:37:47.298Z,76.80
2017-11-13T23:40:14.742Z,76.70
2017-11-13T23:42:42.188Z,76.80
2017-11-13T23:45:09.654Z,76.90
2017-11-13T23:47:37.205Z,76.60
2017-11-13T23:50:05.026Z,76.30
2017-11-13T23:52:32.473Z,76.30
2017-11-13T23:55:01.021Z,76.30
2017-11-13T23:57:28.972Z,76.10
2017-11-13T23:59:56.514Z,76.10
